createdAt,value
2017-01-11T00:00:28.342Z,0
2017-01-11T00:01:42.044Z,0
2017-01-11T00:02:55.656Z,0
2017-01-11T00:04:09.265Z,0
2017-01-11T00:05:23.530Z,0
2017-01-11T00:06:37.288Z,0
2017-01-11T00:07:51.774Z,0
2017-01-11T00:09:05.476Z,0
2017-01-11T00:10:19.086Z,0
2017-01-11T00:11:33.112Z,0
2017-01-11T00:13:00.474Z,0
2017-01-11T00:14:14.109Z,0
2017-01-11T00:15:27.702Z,0
2017-01-11T00:16:41.673Z,0
2017-01-11T00:17:55.689Z,0
2017-01-11T00:19:09.331Z,0
2017-01-11T00:20:25.295Z,0
2017-01-11T00:21:39.019Z,0
2017-01-11T00:22:52.910Z,0
2017-01-11T00:24:07.038Z,0
2017-01-11T00:25:20.627Z,0
2017-01-11T00:26:34.768Z,0
2017-01-11T00:27:48.376Z,0
2017-01-11T00:29:02.277Z,0
2017-01-11T00:30:15.891Z,0
2017-01-11T00:31:29.509Z,0
2017-01-11T00:32:43.515Z,0
2017-01-11T00:33:57.122Z,0
2017-01-11T00:35:11.010Z,0
2017-01-11T00:36:24.632Z,0
2017-01-11T00:37:38.371Z,0
2017-01-11T00:38:51.995Z,0
2017-01-11T00:40:05.684Z,0
2017-01-11T00:41:19.560Z,0
2017-01-11T00:42:33.180Z,0
2017-01-11T00:43:46.921Z,0
2017-01-11T00:45:00.527Z,0
2017-01-11T00:46:14.121Z,0
2017-01-11T00:47:28.021Z,0
2017-01-11T00:48:41.693Z,0
2017-01-11T00:49:55.283Z,0
2017-01-11T00:51:08.887Z,0
2017-01-11T00:52:22.455Z,0
2017-01-11T00:53:36.472Z,0
2017-01-11T00:54:50.103Z,0
2017-01-11T00:56:03.753Z,0
2017-01-11T00:57:17.367Z,0
2017-01-11T00:58:30.923Z,0
2017-01-11T00:59:44.905Z,0
2017-01-11T01:00:58.500Z,0
2017-01-11T01:02:12.098Z,0
2017-01-11T01:03:26.081Z,0
2017-01-11T01:04:39.770Z,0
2017-01-11T01:05:53.779Z,0
2017-01-11T01:07:07.817Z,0
2017-01-11T01:08:21.414Z,0
2017-01-11T01:09:35.151Z,0
2017-01-11T01:10:49.146Z,0
2017-01-11T01:12:03.082Z,0
2017-01-11T01:13:16.661Z,0
2017-01-11T01:14:31.537Z,0
2017-01-11T01:15:45.175Z,0
2017-01-11T01:16:59.200Z,0
2017-01-11T01:18:13.194Z,0
2017-01-11T01:19:26.777Z,0
2017-01-11T01:20:40.464Z,0
2017-01-11T01:21:54.055Z,0
2017-01-11T01:23:07.625Z,0
2017-01-11T01:24:21.563Z,0
2017-01-11T01:25:35.628Z,0
2017-01-11T01:26:49.248Z,0
2017-01-11T01:28:02.830Z,0
2017-01-11T01:29:16.476Z,0
2017-01-11T01:30:30.519Z,0
2017-01-11T01:31:44.143Z,0
2017-01-11T01:32:58.148Z,0
2017-01-11T01:34:11.753Z,0
2017-01-11T01:35:25.674Z,0
2017-01-11T01:36:42.259Z,0
2017-01-11T01:37:55.887Z,0
2017-01-11T01:39:09.508Z,0
2017-01-11T01:40:23.112Z,0
2017-01-11T01:41:36.769Z,0
2017-01-11T01:42:50.643Z,0
2017-01-11T01:44:05.075Z,0
2017-01-11T01:45:18.870Z,0
2017-01-11T01:46:32.596Z,0
2017-01-11T01:47:46.191Z,0
2017-01-11T01:49:00.503Z,0
2017-01-11T01:50:14.114Z,0
2017-01-11T01:51:27.818Z,0
2017-01-11T01:52:41.417Z,0
2017-01-11T01:53:55.004Z,0
2017-01-11T01:55:08.926Z,0
2017-01-11T01:56:22.551Z,0
2017-01-11T01:57:36.252Z,0
2017-01-11T01:58:49.870Z,0
2017-01-11T02:00:03.460Z,0
2017-01-11T02:01:17.361Z,0
2017-01-11T02:02:31.087Z,0
2017-01-11T02:03:44.731Z,0
2017-01-11T02:04:58.292Z,0
2017-01-11T02:06:11.875Z,0
2017-01-11T02:07:25.784Z,0
2017-01-11T02:08:39.415Z,0
2017-01-11T02:09:53.106Z,0
2017-01-11T02:11:07.157Z,0
2017-01-11T02:12:20.745Z,0
2017-01-11T02:13:34.767Z,0
2017-01-11T02:14:48.625Z,0
2017-01-11T02:16:02.854Z,0
2017-01-11T02:17:16.437Z,0
2017-01-11T02:18:30.178Z,0
2017-01-11T02:19:44.032Z,0
2017-01-11T02:20:57.611Z,0
2017-01-11T02:22:11.190Z,0
2017-01-11T02:23:24.819Z,0
2017-01-11T02:24:38.413Z,0
2017-01-11T02:25:52.524Z,0
2017-01-11T02:27:06.119Z,0
2017-01-11T02:28:19.682Z,0
2017-01-11T02:29:33.876Z,0
2017-01-11T02:30:47.490Z,0
2017-01-11T02:32:01.789Z,0
2017-01-11T02:33:15.329Z,0
2017-01-11T02:34:28.995Z,0
2017-01-11T02:35:42.632Z,0
2017-01-11T02:36:56.245Z,0
2017-01-11T02:38:10.217Z,0
2017-01-11T02:39:23.922Z,0
2017-01-11T02:40:37.552Z,0
2017-01-11T02:41:51.136Z,0
2017-01-11T02:43:05.177Z,0
2017-01-11T02:44:19.085Z,0
2017-01-11T02:45:32.822Z,0
2017-01-11T02:46:46.835Z,0
2017-01-11T02:48:00.423Z,0
2017-01-11T02:49:14.596Z,0
2017-01-11T02:50:28.651Z,0
2017-01-11T02:51:42.196Z,0
2017-01-11T02:52:58.047Z,0
2017-01-11T02:54:11.688Z,0
2017-01-11T02:55:25.537Z,0
2017-01-11T02:56:39.426Z,0
2017-01-11T02:57:52.994Z,0
2017-01-11T02:59:06.640Z,0
2017-01-11T03:00:20.679Z,0
2017-01-11T03:01:34.848Z,0
2017-01-11T03:02:48.708Z,0
2017-01-11T03:04:02.281Z,0
2017-01-11T03:05:15.844Z,0
2017-01-11T03:06:29.535Z,0
2017-01-11T03:07:43.180Z,0
2017-01-11T03:08:57.110Z,0
2017-01-11T03:10:10.785Z,0
2017-01-11T03:11:25.052Z,0
2017-01-11T03:12:38.655Z,0
2017-01-11T03:13:52.302Z,0
2017-01-11T03:15:06.210Z,0
2017-01-11T03:16:19.813Z,0
2017-01-11T03:17:33.462Z,0
2017-01-11T03:18:47.062Z,0
2017-01-11T03:20:00.634Z,0
2017-01-11T03:21:14.507Z,0
2017-01-11T03:22:28.232Z,0
2017-01-11T03:23:41.773Z,0
2017-01-11T03:24:55.764Z,0
2017-01-11T03:26:09.396Z,0
2017-01-11T03:27:29.409Z,0
2017-01-11T03:28:46.220Z,0
2017-01-11T03:30:01.676Z,0
2017-01-11T03:31:18.653Z,0
2017-01-11T03:32:34.913Z,0
2017-01-11T03:33:50.779Z,0
2017-01-11T03:35:09.056Z,0
2017-01-11T03:36:24.621Z,0
2017-01-11T03:37:39.967Z,0
2017-01-11T03:38:55.203Z,0
2017-01-11T03:40:10.299Z,0
2017-01-11T03:41:23.865Z,0
2017-01-11T03:42:37.559Z,0
2017-01-11T03:43:51.148Z,0
2017-01-11T03:45:04.800Z,0
2017-01-11T03:46:18.675Z,0
2017-01-11T03:47:32.382Z,0
2017-01-11T03:48:45.984Z,0
2017-01-11T03:49:59.584Z,0
2017-01-11T03:51:14.243Z,0
2017-01-11T03:52:29.403Z,0
2017-01-11T03:53:43.003Z,0
2017-01-11T03:54:56.602Z,0
2017-01-11T03:56:10.218Z,0
2017-01-11T03:57:23.831Z,0
2017-01-11T03:58:38.978Z,0
2017-01-11T03:59:52.542Z,0
2017-01-11T04:01:06.144Z,0
2017-01-11T04:02:19.760Z,0
2017-01-11T04:03:33.522Z,0
2017-01-11T04:04:47.382Z,0
2017-01-11T04:06:01.057Z,0
2017-01-11T04:07:14.958Z,0
2017-01-11T04:08:29.278Z,0
2017-01-11T04:09:46.893Z,0
2017-01-11T04:11:01.737Z,0
2017-01-11T04:12:15.788Z,0
2017-01-11T04:13:30.674Z,0
2017-01-11T04:14:44.290Z,0
2017-01-11T04:15:57.950Z,0
2017-01-11T04:17:11.849Z,0
2017-01-11T04:18:25.403Z,0
2017-01-11T04:19:39.086Z,0
2017-01-11T04:20:52.661Z,0
2017-01-11T04:22:06.321Z,0
2017-01-11T04:23:20.212Z,0
2017-01-11T04:24:33.844Z,0
2017-01-11T04:25:47.414Z,0
2017-01-11T04:27:01.448Z,0
2017-01-11T04:28:15.206Z,0
2017-01-11T04:29:30.503Z,0
2017-01-11T04:30:44.080Z,0
2017-01-11T04:31:57.753Z,0
2017-01-11T04:33:11.821Z,0
2017-01-11T04:34:25.426Z,0
2017-01-11T04:35:40.581Z,0
2017-01-11T04:36:54.593Z,0
2017-01-11T04:38:08.189Z,0
2017-01-11T04:39:21.927Z,0
2017-01-11T04:41:01.650Z,0
2017-01-11T04:42:15.717Z,0
2017-01-11T04:43:29.314Z,0
2017-01-11T04:44:43.051Z,0
2017-01-11T04:45:57.957Z,0
2017-01-11T04:47:11.869Z,0
2017-01-11T04:48:25.481Z,0
2017-01-11T04:49:39.271Z,0
2017-01-11T04:50:52.897Z,0
2017-01-11T04:52:06.643Z,0
2017-01-11T04:53:20.557Z,0
2017-01-11T04:54:34.153Z,0
2017-01-11T04:55:47.731Z,0
2017-01-11T04:57:01.433Z,0
2017-01-11T04:58:15.046Z,0
2017-01-11T04:59:28.948Z,0
2017-01-11T05:00:42.511Z,0
2017-01-11T05:01:56.170Z,0
2017-01-11T05:03:09.742Z,0
2017-01-11T05:04:23.823Z,0
2017-01-11T05:05:37.755Z,0
2017-01-11T05:06:51.423Z,0
2017-01-11T05:08:05.016Z,0
2017-01-11T05:09:18.604Z,0
2017-01-11T05:10:32.230Z,0
2017-01-11T05:11:46.179Z,0
2017-01-11T05:12:59.803Z,0
2017-01-11T05:14:13.795Z,0
2017-01-11T05:15:27.796Z,0
2017-01-11T05:16:41.384Z,0
2017-01-11T05:17:55.796Z,0
2017-01-11T05:19:09.356Z,0
2017-01-11T05:20:22.941Z,0
2017-01-11T05:21:36.580Z,0
2017-01-11T05:22:50.319Z,0
2017-01-11T05:24:04.263Z,0
2017-01-11T05:25:17.888Z,0
2017-01-11T05:26:33.704Z,0
2017-01-11T05:27:47.300Z,0
2017-01-11T05:29:00.948Z,0
2017-01-11T05:30:16.258Z,0
2017-01-11T05:31:29.849Z,0
2017-01-11T05:32:43.642Z,0
2017-01-11T05:33:57.953Z,0
2017-01-11T05:35:11.588Z,0
2017-01-11T05:36:25.464Z,0
2017-01-11T05:37:39.115Z,0
2017-01-11T05:38:52.835Z,0
2017-01-11T05:40:06.461Z,0
2017-01-11T05:41:20.113Z,0
2017-01-11T05:42:34.071Z,0
2017-01-11T05:43:47.794Z,0
2017-01-11T05:45:01.557Z,0
2017-01-11T05:46:15.202Z,0
2017-01-11T05:47:28.858Z,0
2017-01-11T05:48:42.799Z,0
2017-01-11T05:49:57.359Z,0
2017-01-11T05:51:10.976Z,0
2017-01-11T05:52:24.547Z,0
2017-01-11T05:53:38.197Z,0
2017-01-11T05:54:53.363Z,0
2017-01-11T05:56:06.963Z,0
2017-01-11T05:57:20.594Z,0
2017-01-11T05:58:34.334Z,0
2017-01-11T05:59:47.925Z,0
2017-01-11T06:01:01.987Z,0
2017-01-11T06:02:16.128Z,0
2017-01-11T06:03:29.731Z,0
2017-01-11T06:04:43.302Z,0
2017-01-11T06:05:57.031Z,0
2017-01-11T06:07:11.396Z,0
2017-01-11T06:08:25.005Z,0
2017-01-11T06:09:38.710Z,0
2017-01-11T06:10:52.640Z,0
2017-01-11T06:12:06.696Z,0
2017-01-11T06:13:20.571Z,0
2017-01-11T06:14:34.180Z,0
2017-01-11T06:15:47.929Z,0
2017-01-11T06:17:01.861Z,0
2017-01-11T06:18:15.444Z,0
2017-01-11T06:19:29.351Z,0
2017-01-11T06:20:43.383Z,0
2017-01-11T06:21:57.074Z,0
2017-01-11T06:23:11.111Z,0
2017-01-11T06:24:24.668Z,0
2017-01-11T06:25:38.549Z,0
2017-01-11T06:26:52.233Z,0
2017-01-11T06:28:06.276Z,0
2017-01-11T06:29:19.868Z,0
2017-01-11T06:30:33.442Z,0
2017-01-11T06:31:47.130Z,0
2017-01-11T06:33:01.134Z,0
2017-01-11T06:34:14.897Z,0
2017-01-11T06:35:28.499Z,0
2017-01-11T06:36:42.685Z,0
2017-01-11T06:37:57.939Z,0
2017-01-11T06:39:11.547Z,0
2017-01-11T06:40:25.098Z,0
2017-01-11T06:41:38.748Z,0
2017-01-11T06:42:55.865Z,0
2017-01-11T06:44:09.772Z,0
2017-01-11T06:45:23.373Z,0
2017-01-11T06:46:36.913Z,0
2017-01-11T06:47:50.635Z,0
2017-01-11T06:49:04.213Z,0
2017-01-11T06:50:18.528Z,0
2017-01-11T06:51:32.158Z,0
2017-01-11T06:52:45.747Z,0
2017-01-11T06:53:59.460Z,0
2017-01-11T06:55:13.052Z,0
2017-01-11T06:56:26.931Z,0
2017-01-11T06:57:40.527Z,0
2017-01-11T06:58:54.211Z,0
2017-01-11T07:00:08.238Z,0
2017-01-11T07:01:21.854Z,0
2017-01-11T07:02:35.744Z,0
2017-01-11T07:03:49.462Z,0
2017-01-11T07:05:03.050Z,0
2017-01-11T07:06:16.639Z,0
2017-01-11T07:07:30.347Z,0
2017-01-11T07:08:44.192Z,0
2017-01-11T07:09:57.836Z,0
2017-01-11T07:11:11.482Z,0
2017-01-11T07:12:34.701Z,0
2017-01-11T07:13:48.277Z,0
2017-01-11T07:15:02.257Z,0
2017-01-11T07:16:15.886Z,0
2017-01-11T07:17:29.521Z,0
2017-01-11T07:18:43.129Z,0
2017-01-11T07:19:56.855Z,0
2017-01-11T07:21:10.814Z,0
2017-01-11T07:22:24.400Z,0
2017-01-11T07:23:38.409Z,0
2017-01-11T07:24:51.968Z,0
2017-01-11T07:26:05.652Z,0
2017-01-11T07:27:19.508Z,0
2017-01-11T07:28:33.087Z,0
2017-01-11T07:29:46.669Z,0
2017-01-11T07:31:00.372Z,0
2017-01-11T07:32:14.053Z,0
2017-01-11T07:33:27.913Z,0
2017-01-11T07:34:41.673Z,0
2017-01-11T07:35:55.482Z,0
2017-01-11T07:37:09.104Z,0
2017-01-11T07:38:22.672Z,0
2017-01-11T07:39:36.539Z,0
2017-01-11T07:40:50.205Z,0
2017-01-11T07:42:03.812Z,0
2017-01-11T07:43:17.809Z,5
2017-01-11T07:44:31.401Z,5
2017-01-11T07:45:45.320Z,5
2017-01-11T07:46:59.043Z,5
2017-01-11T07:48:12.669Z,0
2017-01-11T07:49:26.271Z,0
2017-01-11T07:50:39.850Z,5
2017-01-11T07:51:53.877Z,5
2017-01-11T07:53:07.497Z,5
2017-01-11T07:54:21.071Z,5
2017-01-11T07:55:34.662Z,5
2017-01-11T07:56:48.272Z,5
2017-01-11T07:58:02.202Z,5
2017-01-11T07:59:18.388Z,5
2017-01-11T08:00:31.942Z,5
2017-01-11T08:01:45.529Z,5
2017-01-11T08:02:59.741Z,5
2017-01-11T08:04:13.617Z,10
2017-01-11T08:05:27.228Z,10
2017-01-11T08:06:40.801Z,15
2017-01-11T08:07:55.754Z,10
2017-01-11T08:09:09.347Z,15
2017-01-11T08:10:23.676Z,15
2017-01-11T08:11:37.346Z,15
2017-01-11T08:12:52.701Z,15
2017-01-11T08:14:06.275Z,10
2017-01-11T08:15:19.908Z,10
2017-01-11T08:16:33.503Z,15
2017-01-11T08:17:47.278Z,10
2017-01-11T08:19:00.982Z,10
2017-01-11T08:20:14.633Z,10
2017-01-11T08:21:29.172Z,10
2017-01-11T08:22:43.094Z,10
2017-01-11T08:23:56.794Z,15
2017-01-11T08:25:10.512Z,15
2017-01-11T08:26:24.091Z,10
2017-01-11T08:27:37.840Z,15
2017-01-11T08:28:51.940Z,15
2017-01-11T08:30:05.837Z,15
2017-01-11T08:31:19.451Z,20
2017-01-11T08:32:33.042Z,25
2017-01-11T08:33:47.764Z,15
2017-01-11T08:35:01.973Z,20
2017-01-11T08:36:15.664Z,20
2017-01-11T08:37:29.335Z,20
2017-01-11T08:38:43.321Z,20
2017-01-11T08:39:57.097Z,20
2017-01-11T08:41:11.425Z,20
2017-01-11T08:42:25.424Z,20
2017-01-11T08:43:39.408Z,15
2017-01-11T08:44:54.738Z,20
2017-01-11T08:46:08.566Z,15
2017-01-11T08:47:22.542Z,20
2017-01-11T08:48:36.121Z,15
2017-01-11T08:49:49.828Z,15
2017-01-11T08:51:03.418Z,20
2017-01-11T08:52:17.002Z,20
2017-01-11T08:53:30.887Z,20
2017-01-11T08:54:44.532Z,20
2017-01-11T08:55:58.197Z,20
2017-01-11T08:57:11.751Z,25
2017-01-11T08:58:25.354Z,20
2017-01-11T08:59:39.768Z,20
2017-01-11T09:00:54.670Z,20
2017-01-11T09:02:08.235Z,25
2017-01-11T09:03:21.805Z,25
2017-01-11T09:04:35.429Z,25
2017-01-11T09:05:49.366Z,25
2017-01-11T09:08:38.974Z,30
2017-01-11T09:09:52.564Z,25
2017-01-11T09:11:06.566Z,30
2017-01-11T09:12:20.155Z,25
2017-01-11T09:13:34.135Z,20
2017-01-11T09:14:47.753Z,25
2017-01-11T09:16:01.853Z,25
2017-01-11T09:17:17.967Z,30
2017-01-11T09:18:31.576Z,30
2017-01-11T09:19:45.179Z,30
2017-01-11T09:20:59.263Z,25
2017-01-11T09:22:12.878Z,25
2017-01-11T09:23:27.198Z,30
2017-01-11T09:24:40.793Z,25
2017-01-11T09:25:54.408Z,20
2017-01-11T09:27:08.107Z,25
2017-01-11T09:28:21.716Z,25
2017-01-11T09:29:36.061Z,35
2017-01-11T09:30:49.677Z,30
2017-01-11T09:32:03.607Z,35
2017-01-11T09:33:18.317Z,40
2017-01-11T09:34:31.910Z,45
2017-01-11T09:35:46.327Z,50
2017-01-11T09:37:00.314Z,50
2017-01-11T09:38:14.795Z,50
2017-01-11T09:39:28.378Z,70
2017-01-11T09:40:41.952Z,60
2017-01-11T09:41:56.343Z,60
2017-01-11T09:43:09.944Z,55
2017-01-11T09:44:23.564Z,55
2017-01-11T09:45:37.166Z,60
2017-01-11T09:46:50.732Z,55
2017-01-11T09:48:04.722Z,45
2017-01-11T09:49:18.309Z,45
2017-01-11T09:50:31.913Z,50
2017-01-11T09:51:46.109Z,40
2017-01-11T09:53:01.067Z,40
2017-01-11T09:54:15.379Z,50
2017-01-11T09:55:29.393Z,55
2017-01-11T09:56:42.954Z,45
2017-01-11T09:57:56.630Z,60
2017-01-11T09:59:10.273Z,55
2017-01-11T10:00:24.150Z,55
2017-01-11T10:01:37.751Z,65
2017-01-11T10:02:51.328Z,60
2017-01-11T10:04:05.063Z,65
2017-01-11T10:05:18.660Z,55
2017-01-11T10:06:32.588Z,65
2017-01-11T10:07:46.178Z,65
2017-01-11T10:11:03.243Z,70
2017-01-11T10:12:17.164Z,60
2017-01-11T10:13:30.767Z,65
2017-01-11T10:14:44.398Z,65
2017-01-11T10:15:59.215Z,65
2017-01-11T10:17:12.800Z,70
2017-01-11T10:18:26.717Z,70
2017-01-11T10:19:40.371Z,70
2017-01-11T10:20:54.066Z,70
2017-01-11T10:22:57.017Z,80
2017-01-11T10:24:11.355Z,85
2017-01-11T10:25:24.946Z,90
2017-01-11T10:26:38.520Z,105
2017-01-11T10:27:52.222Z,100
2017-01-11T10:29:05.969Z,95
2017-01-11T10:30:19.926Z,85
2017-01-11T10:31:39.802Z,70
2017-01-11T10:32:53.494Z,65
2017-01-11T10:34:07.149Z,60
2017-01-11T10:35:23.014Z,60
2017-01-11T10:36:36.992Z,75
2017-01-11T10:37:50.573Z,65
2017-01-11T10:39:04.350Z,65
2017-01-11T10:40:17.998Z,65
2017-01-11T10:41:32.522Z,70
2017-01-11T10:42:46.478Z,70
2017-01-11T10:44:11.310Z,60
2017-01-11T10:45:24.921Z,60
2017-01-11T10:46:38.826Z,75
2017-01-11T10:47:52.858Z,75
2017-01-11T10:50:30.828Z,70
2017-01-11T10:51:44.441Z,60
2017-01-11T10:52:58.187Z,60
2017-01-11T10:54:11.805Z,65
2017-01-11T10:55:35.715Z,75
2017-01-11T10:56:49.401Z,70
2017-01-11T10:58:02.968Z,65
2017-01-11T10:59:16.576Z,50
2017-01-11T11:00:40.162Z,55
2017-01-11T11:01:54.021Z,55
2017-01-11T11:03:08.099Z,50
2017-01-11T11:04:21.750Z,50
2017-01-11T11:05:35.431Z,60
2017-01-11T11:06:59.339Z,65
2017-01-11T11:08:12.955Z,60
2017-01-11T11:09:26.486Z,65
2017-01-11T11:10:40.901Z,70
2017-01-11T11:11:54.597Z,75
2017-01-11T11:13:08.516Z,85
2017-01-11T11:14:22.137Z,100
2017-01-11T11:15:35.787Z,100
2017-01-11T11:16:49.466Z,90
2017-01-11T11:18:33.949Z,65
2017-01-11T11:19:47.857Z,65
2017-01-11T11:21:01.412Z,70
2017-01-11T11:22:15.202Z,75
2017-01-11T11:24:52.671Z,70
2017-01-11T11:26:06.249Z,65
2017-01-11T11:27:20.253Z,65
2017-01-11T11:28:33.848Z,60
2017-01-11T11:30:17.136Z,60
2017-01-11T11:31:31.065Z,55
2017-01-11T11:32:44.646Z,55
2017-01-11T11:33:58.359Z,60
2017-01-11T11:35:12.001Z,60
2017-01-11T11:36:36.658Z,70
2017-01-11T11:37:50.252Z,70
2017-01-11T11:39:03.805Z,65
2017-01-11T11:40:17.499Z,60
2017-01-11T11:43:14.638Z,60
2017-01-11T11:44:28.219Z,55
2017-01-11T11:45:41.819Z,50
2017-01-11T11:46:55.420Z,45
2017-01-11T11:48:09.127Z,45
2017-01-11T11:49:23.033Z,45
2017-01-11T11:50:37.092Z,40
2017-01-11T11:51:50.685Z,35
2017-01-11T11:53:04.371Z,30
2017-01-11T11:54:20.129Z,30
2017-01-11T11:55:34.030Z,30
2017-01-11T11:56:47.741Z,35
2017-01-11T11:59:45.273Z,30
2017-01-11T12:00:59.219Z,25
2017-01-11T12:02:12.780Z,25
2017-01-11T12:03:26.386Z,25
2017-01-11T12:04:49.939Z,30
2017-01-11T12:06:03.533Z,35
2017-01-11T12:07:18.287Z,35
2017-01-11T12:08:31.883Z,40
2017-01-11T12:09:45.945Z,55
2017-01-11T12:10:59.904Z,60
2017-01-11T12:12:13.930Z,55
2017-01-11T12:13:27.847Z,60
2017-01-11T12:14:41.423Z,65
2017-01-11T12:15:56.325Z,60
2017-01-11T12:17:09.910Z,55
2017-01-11T12:18:23.954Z,50
2017-01-11T12:19:37.991Z,50
2017-01-11T12:20:51.672Z,50
2017-01-11T12:22:05.268Z,50
2017-01-11T12:23:18.895Z,50
2017-01-11T12:24:32.467Z,55
2017-01-11T12:25:46.422Z,55
2017-01-11T12:27:00.160Z,55
2017-01-11T12:28:13.855Z,50
2017-01-11T12:29:27.429Z,45
2017-01-11T12:30:41.059Z,45
2017-01-11T12:31:56.574Z,35
2017-01-11T12:33:10.187Z,30
2017-01-11T12:34:23.793Z,25
2017-01-11T12:35:37.435Z,30
2017-01-11T12:36:51.148Z,20
2017-01-11T12:38:05.070Z,20
2017-01-11T12:39:19.340Z,20
2017-01-11T12:40:33.407Z,20
2017-01-11T12:41:47.060Z,20
2017-01-11T12:43:00.752Z,15
2017-01-11T12:44:15.099Z,20
2017-01-11T12:45:28.736Z,15
2017-01-11T12:46:44.155Z,15
2017-01-11T12:47:59.018Z,15
2017-01-11T12:49:12.639Z,15
2017-01-11T12:50:26.486Z,15
2017-01-11T12:51:40.073Z,15
2017-01-11T12:52:53.877Z,15
2017-01-11T12:54:07.499Z,15
2017-01-11T12:55:21.106Z,10
2017-01-11T12:56:34.962Z,10
2017-01-11T12:57:48.563Z,15
2017-01-11T12:59:02.444Z,15
2017-01-11T13:00:16.055Z,15
2017-01-11T13:01:29.668Z,15
2017-01-11T13:02:44.511Z,15
2017-01-11T13:04:17.911Z,15
2017-01-11T13:05:31.566Z,20
2017-01-11T13:06:45.129Z,20
2017-01-11T13:07:59.041Z,15
2017-01-11T13:09:12.640Z,15
2017-01-11T13:10:36.784Z,15
2017-01-11T13:11:53.045Z,15
2017-01-11T13:13:06.633Z,15
2017-01-11T13:14:20.765Z,20
2017-01-11T13:16:04.078Z,20
2017-01-11T13:17:18.110Z,15
2017-01-11T13:18:31.892Z,15
2017-01-11T13:19:47.173Z,20
2017-01-11T13:21:01.029Z,20
2017-01-11T13:22:15.447Z,15
2017-01-11T13:23:29.829Z,20
2017-01-11T13:24:44.041Z,20
2017-01-11T13:25:58.496Z,15
2017-01-11T13:27:13.000Z,20
2017-01-11T13:28:26.853Z,15
2017-01-11T13:29:40.498Z,15
2017-01-11T13:30:54.495Z,15
2017-01-11T13:32:18.440Z,15
2017-01-11T13:33:32.072Z,15
2017-01-11T13:34:45.697Z,20
2017-01-11T13:35:59.302Z,25
2017-01-11T13:37:13.041Z,20
2017-01-11T13:38:56.326Z,15
2017-01-11T13:40:10.660Z,15
2017-01-11T13:41:24.301Z,15
2017-01-11T13:42:37.956Z,20
2017-01-11T13:45:25.314Z,20
2017-01-11T13:46:38.893Z,15
2017-01-11T13:47:52.490Z,15
2017-01-11T13:49:06.157Z,20
2017-01-11T13:50:19.889Z,20
2017-01-11T13:51:33.839Z,20
2017-01-11T13:52:47.461Z,20
2017-01-11T13:54:01.091Z,15
2017-01-11T13:55:24.653Z,15
2017-01-11T13:56:38.276Z,20
2017-01-11T13:57:52.168Z,20
2017-01-11T13:59:05.771Z,20
2017-01-11T14:00:20.765Z,20
2017-01-11T14:01:44.395Z,25
2017-01-11T14:02:58.432Z,20
2017-01-11T14:04:12.068Z,20
2017-01-11T14:05:25.675Z,20
2017-01-11T14:06:39.380Z,15
2017-01-11T14:07:52.993Z,15
2017-01-11T14:09:07.283Z,15
2017-01-11T14:10:21.775Z,15
2017-01-11T14:13:29.033Z,15
2017-01-11T14:14:43.151Z,15
2017-01-11T14:15:57.401Z,15
2017-01-11T14:17:11.011Z,15
2017-01-11T14:18:24.717Z,15
2017-01-11T14:19:38.572Z,15
2017-01-11T14:20:52.444Z,15
2017-01-11T14:22:06.541Z,10
2017-01-11T14:23:20.217Z,10
2017-01-11T14:24:33.952Z,15
2017-01-11T14:25:47.649Z,15
2017-01-11T14:27:02.207Z,15
2017-01-11T14:28:15.806Z,20
2017-01-11T14:29:29.505Z,15
2017-01-11T14:30:45.575Z,15
2017-01-11T14:31:59.369Z,15
2017-01-11T14:33:13.351Z,10
2017-01-11T14:34:27.312Z,10
2017-01-11T14:35:40.912Z,10
2017-01-11T14:36:54.486Z,10
2017-01-11T14:38:08.102Z,5
2017-01-11T14:39:22.161Z,5
2017-01-11T14:40:35.773Z,5
2017-01-11T14:41:49.382Z,5
2017-01-11T14:43:03.432Z,10
2017-01-11T14:44:17.690Z,10
2017-01-11T14:45:34.049Z,10
2017-01-11T14:46:47.708Z,5
2017-01-11T14:48:01.337Z,5
2017-01-11T14:49:14.971Z,5
2017-01-11T14:50:28.741Z,5
2017-01-11T14:51:42.839Z,5
2017-01-11T14:52:56.486Z,5
2017-01-11T14:54:10.082Z,5
2017-01-11T14:55:24.982Z,5
2017-01-11T14:56:38.600Z,5
2017-01-11T14:57:53.799Z,5
2017-01-11T14:59:07.425Z,5
2017-01-11T15:00:22.138Z,5
2017-01-11T15:01:35.889Z,0
2017-01-11T15:02:55.527Z,0
2017-01-11T15:04:23.579Z,0
2017-01-11T15:05:39.752Z,0
2017-01-11T15:06:53.255Z,0
2017-01-11T15:08:06.772Z,0
2017-01-11T15:09:20.228Z,0
2017-01-11T15:10:35.023Z,0
2017-01-11T15:11:48.587Z,0
2017-01-11T15:13:02.070Z,0
2017-01-11T15:14:15.531Z,0
2017-01-11T15:15:29.027Z,0
2017-01-11T15:16:42.900Z,0
2017-01-11T15:17:56.333Z,0
2017-01-11T15:19:09.798Z,0
2017-01-11T15:20:23.303Z,0
2017-01-11T15:21:36.863Z,0
2017-01-11T15:22:50.584Z,0
2017-01-11T15:24:03.997Z,0
2017-01-11T15:25:17.465Z,0
2017-01-11T15:26:31.005Z,0
2017-01-11T15:27:44.474Z,0
2017-01-11T15:28:59.445Z,0
2017-01-11T15:30:12.916Z,0
2017-01-11T15:31:27.706Z,0
2017-01-11T15:32:41.533Z,0
2017-01-11T15:33:55.179Z,0
2017-01-11T15:35:09.357Z,0
2017-01-11T15:36:22.814Z,0
2017-01-11T15:37:36.383Z,0
2017-01-11T15:38:50.271Z,0
2017-01-11T15:40:03.724Z,0
2017-01-11T15:41:17.890Z,0
2017-01-11T15:42:31.559Z,0
2017-01-11T15:43:45.016Z,0
2017-01-11T15:44:58.554Z,0
2017-01-11T15:46:12.070Z,0
2017-01-11T15:47:28.097Z,0
2017-01-11T15:50:21.495Z,0
2017-01-11T15:51:35.007Z,0
2017-01-11T15:52:48.921Z,0
2017-01-11T15:54:02.360Z,0
2017-01-11T15:55:19.558Z,0
2017-01-11T15:56:33.433Z,0
2017-01-11T15:57:47.528Z,0
2017-01-11T15:59:01.532Z,0
2017-01-11T16:00:16.404Z,0
2017-01-11T16:01:29.887Z,0
2017-01-11T16:02:44.720Z,0
2017-01-11T16:03:59.137Z,0
2017-01-11T16:05:13.295Z,0
2017-01-11T16:06:26.746Z,0
2017-01-11T16:07:41.834Z,0
2017-01-11T16:08:55.373Z,0
2017-01-11T16:10:09.308Z,0
2017-01-11T16:11:23.642Z,0
2017-01-11T16:12:37.077Z,0
2017-01-11T16:13:51.849Z,0
2017-01-11T16:15:05.440Z,0
2017-01-11T16:16:21.744Z,0
2017-01-11T16:17:36.022Z,0
2017-01-11T16:18:49.538Z,0
2017-01-11T16:20:03.216Z,0
2017-01-11T16:21:16.684Z,0
2017-01-11T16:22:30.168Z,0
2017-01-11T16:23:44.031Z,0
2017-01-11T16:24:57.500Z,0
2017-01-11T16:26:10.984Z,0
2017-01-11T16:27:24.484Z,0
2017-01-11T16:28:37.953Z,0
2017-01-11T16:29:51.849Z,0
2017-01-11T16:31:05.769Z,0
2017-01-11T16:32:21.787Z,0
2017-01-11T16:33:35.225Z,0
2017-01-11T16:34:49.679Z,0
2017-01-11T16:36:05.186Z,0
2017-01-11T16:37:19.019Z,0
2017-01-11T16:38:32.915Z,0
2017-01-11T16:39:47.513Z,0
2017-01-11T16:41:01.460Z,0
2017-01-11T16:42:15.619Z,0
2017-01-11T16:43:29.103Z,0
2017-01-11T16:44:42.560Z,0
2017-01-11T16:45:57.343Z,0
2017-01-11T16:47:11.234Z,0
2017-01-11T16:49:20.249Z,0
2017-01-11T16:50:34.373Z,0
2017-01-11T16:51:45.481Z,0
2017-01-11T16:53:22.610Z,0
2017-01-11T16:54:34.688Z,0
2017-01-11T16:55:46.494Z,0
2017-01-11T16:56:58.158Z,0
2017-01-11T16:58:09.207Z,0
2017-01-11T16:59:20.237Z,0
2017-01-11T17:00:31.316Z,0
2017-01-11T17:01:42.682Z,0
2017-01-11T17:02:53.914Z,0
2017-01-11T17:04:05.366Z,0
2017-01-11T17:05:16.470Z,0
2017-01-11T17:06:29.727Z,0
2017-01-11T17:07:40.751Z,0
2017-01-11T17:08:51.888Z,0
2017-01-11T17:10:02.945Z,0
2017-01-11T17:11:14.031Z,0
2017-01-11T17:12:25.539Z,0
2017-01-11T17:13:36.856Z,0
2017-01-11T17:14:47.986Z,0
2017-01-11T17:15:59.000Z,0
2017-01-11T17:17:10.043Z,0
2017-01-11T17:18:21.104Z,0
2017-01-11T17:19:32.436Z,0
2017-01-11T17:20:44.009Z,0
2017-01-11T17:21:55.044Z,0
2017-01-11T17:23:06.079Z,0
2017-01-11T17:24:17.142Z,0
2017-01-11T17:25:28.465Z,0
2017-01-11T17:26:39.655Z,0
2017-01-11T17:27:50.732Z,0
2017-01-11T17:29:01.849Z,0
2017-01-11T17:30:13.306Z,0
2017-01-11T17:31:25.043Z,0
2017-01-11T17:32:36.249Z,0
2017-01-11T17:33:48.471Z,0
2017-01-11T17:34:59.527Z,0
2017-01-11T17:36:10.625Z,0
2017-01-11T17:37:21.975Z,0
2017-01-11T17:38:33.131Z,0
2017-01-11T17:39:44.151Z,0
2017-01-11T17:40:55.191Z,0
2017-01-11T17:42:43.306Z,0
2017-01-11T17:43:54.460Z,0
2017-01-11T17:45:05.538Z,0
2017-01-11T17:46:16.675Z,0
2017-01-11T17:47:27.705Z,0
2017-01-11T17:48:39.042Z,0
2017-01-11T17:49:50.169Z,0
2017-01-11T17:51:01.197Z,0
2017-01-11T17:52:12.258Z,0
2017-01-11T17:53:23.288Z,0
2017-01-11T17:54:34.619Z,0
2017-01-11T17:55:45.753Z,0
2017-01-11T17:56:56.854Z,0
2017-01-11T17:58:07.916Z,0
2017-01-11T17:59:18.979Z,0
2017-01-11T18:00:30.314Z,0
2017-01-11T18:01:41.452Z,0
2017-01-11T18:02:52.516Z,0
2017-01-11T18:04:03.596Z,0
2017-01-11T18:05:14.645Z,0
2017-01-11T18:06:25.953Z,0
2017-01-11T18:07:37.100Z,0
2017-01-11T18:08:48.567Z,0
2017-01-11T18:09:59.593Z,0
2017-01-11T18:11:10.642Z,0
2017-01-11T18:12:22.413Z,0
2017-01-11T18:13:33.811Z,0
2017-01-11T18:14:44.839Z,0
2017-01-11T18:15:55.865Z,0
2017-01-11T18:17:07.329Z,0
2017-01-11T18:18:18.835Z,0